sensor_id;sensor_type;location;lat;lon;timestamp;P1;durP1;ratioP1;P2;durP2;ratioP2
56255;SDS011;57229;51.432;-2.598;2023-08-08T00:01:15;4.47;;;3.88;;
56255;SDS011;57229;51.432;-2.598;2023-08-08T00:03:41;4.40;;;4.00;;
56255;SDS011;57229;51.432;-2.598;2023-08-08T00:06:06;4.55;;;4.15;;
56255;SDS011;57229;51.432;-2.598;2023-08-08T00:08:32;4.88;;;3.97;;
56255;SDS011;57229;51.432;-2.598;2023-08-08T00:10:58;9.73;;;4.38;;
56255;SDS011;57229;51.432;-2.598;2023-08-08T00:13:23;8.00;;;4.05;;
56255;SDS011;57229;51.432;-2.598;2023-08-08T00:15:49;4.57;;;3.90;;
56255;SDS011;57229;51.432;-2.598;2023-08-08T00:18:14;8.63;;;4.20;;
56255;SDS011;57229;51.432;-2.598;2023-08-08T00:20:40;6.90;;;4.38;;
56255;SDS011;57229;51.432;-2.598;2023-08-08T00:23:05;8.20;;;4.00;;
56255;SDS011;57229;51.432;-2.598;2023-08-08T00:25:34;7.65;;;4.07;;
56255;SDS011;57229;51.432;-2.598;2023-08-08T00:28:15;6.63;;;4.60;;
56255;SDS011;57229;51.432;-2.598;2023-08-08T00:31:01;6.38;;;3.60;;
56255;SDS011;57229;51.432;-2.598;2023-08-08T00:33:33;5.40;;;3.90;;
56255;SDS011;57229;51.432;-2.598;2023-08-08T00:35:59;4.35;;;3.90;;
56255;SDS011;57229;51.432;-2.598;2023-08-08T00:38:24;5.90;;;3.60;;
56255;SDS011;57229;51.432;-2.598;2023-08-08T00:40:50;5.80;;;4.03;;
56255;SDS011;57229;51.432;-2.598;2023-08-08T00:43:16;6.70;;;3.92;;
56255;SDS011;57229;51.432;-2.598;2023-08-08T00:45:41;4.78;;;4.00;;
56255;SDS011;57229;51.432;-2.598;2023-08-08T00:48:08;4.55;;;3.78;;
56255;SDS011;57229;51.432;-2.598;2023-08-08T00:50:34;8.15;;;4.07;;
56255;SDS011;57229;51.432;-2.598;2023-08-08T00:53:01;4.40;;;3.67;;
56255;SDS011;57229;51.432;-2.598;2023-08-08T00:55:28;5.78;;;3.80;;
56255;SDS011;57229;51.432;-2.598;2023-08-08T00:57:54;5.30;;;3.70;;
56255;SDS011;57229;51.432;-2.598;2023-08-08T01:00:20;7.03;;;3.95;;
56255;SDS011;57229;51.432;-2.598;2023-08-08T01:02:46;6.78;;;4.10;;
56255;SDS011;57229;51.432;-2.598;2023-08-08T01:05:11;5.85;;;3.78;;
56255;SDS011;57229;51.432;-2.598;2023-08-08T01:07:45;7.70;;;3.80;;
56255;SDS011;57229;51.432;-2.598;2023-08-08T01:10:20;6.60;;;3.90;;
56255;SDS011;57229;51.432;-2.598;2023-08-08T01:12:52;3.75;;;3.35;;
56255;SDS011;57229;51.432;-2.598;2023-08-08T01:15:24;5.50;;;3.88;;
56255;SDS011;57229;51.432;-2.598;2023-08-08T01:17:50;4.97;;;3.60;;
56255;SDS011;57229;51.432;-2.598;2023-08-08T01:20:17;6.45;;;3.58;;
56255;SDS011;57229;51.432;-2.598;2023-08-08T01:22:59;7.55;;;3.38;;
56255;SDS011;57229;51.432;-2.598;2023-08-08T01:25:30;4.75;;;3.70;;
56255;SDS011;57229;51.432;-2.598;2023-08-08T01:27:56;6.38;;;3.60;;
56255;SDS011;57229;51.432;-2.598;2023-08-08T01:30:22;5.53;;;3.58;;
56255;SDS011;57229;51.432;-2.598;2023-08-08T01:32:56;5.90;;;3.60;;
56255;SDS011;57229;51.432;-2.598;2023-08-08T01:35:22;6.55;;;3.35;;
56255;SDS011;57229;51.432;-2.598;2023-08-08T01:37:52;4.50;;;3.42;;
56255;SDS011;57229;51.432;-2.598;2023-08-08T01:40:24;3.50;;;3.20;;
56255;SDS011;57229;51.432;-2.598;2023-08-08T01:42:50;4.53;;;3.45;;
56255;SDS011;57229;51.432;-2.598;2023-08-08T01:45:17;5.70;;;3.78;;
56255;SDS011;57229;51.432;-2.598;2023-08-08T01:47:48;6.15;;;3.42;;
56255;SDS011;57229;51.432;-2.598;2023-08-08T01:50:15;5.55;;;3.50;;
56255;SDS011;57229;51.432;-2.598;2023-08-08T01:52:50;5.28;;;3.50;;
56255;SDS011;57229;51.432;-2.598;2023-08-08T01:55:15;3.75;;;3.45;;
56255;SDS011;57229;51.432;-2.598;2023-08-08T01:57:41;6.47;;;3.40;;
56255;SDS011;57229;51.432;-2.598;2023-08-08T02:00:16;3.67;;;3.35;;
56255;SDS011;57229;51.432;-2.598;2023-08-08T02:02:44;3.65;;;3.35;;
56255;SDS011;57229;51.432;-2.598;2023-08-08T02:05:10;3.50;;;3.20;;
56255;SDS011;57229;51.432;-2.598;2023-08-08T02:07:36;5.57;;;3.20;;
56255;SDS011;57229;51.432;-2.598;2023-08-08T02:10:05;4.47;;;3.28;;
56255;SDS011;57229;51.432;-2.598;2023-08-08T02:12:31;5.32;;;3.35;;
56255;SDS011;57229;51.432;-2.598;2023-08-08T02:14:57;3.30;;;3.00;;
56255;SDS011;57229;51.432;-2.598;2023-08-08T02:17:22;4.20;;;3.30;;
56255;SDS011;57229;51.432;-2.598;2023-08-08T02:20:01;6.53;;;3.13;;
56255;SDS011;57229;51.432;-2.598;2023-08-08T02:23:06;4.15;;;3.80;;
56255;SDS011;57229;51.432;-2.598;2023-08-08T02:25:52;4.60;;;3.83;;
56255;SDS011;57229;51.432;-2.598;2023-08-08T02:28:23;3.97;;;3.58;;
56255;SDS011;57229;51.432;-2.598;2023-08-08T02:30:49;6.43;;;3.80;;
56255;SDS011;57229;51.432;-2.598;2023-08-08T02:33:15;3.58;;;3.22;;
56255;SDS011;57229;51.432;-2.598;2023-08-08T02:38:55;5.75;;;3.35;;
56255;SDS011;57229;51.432;-2.598;2023-08-08T02:41:20;5.15;;;3.60;;
56255;SDS011;57229;51.432;-2.598;2023-08-08T02:43:46;4.47;;;3.10;;
56255;SDS011;57229;51.432;-2.598;2023-08-08T02:46:12;3.45;;;3.15;;
56255;SDS011;57229;51.432;-2.598;2023-08-08T02:48:37;4.82;;;3.10;;
56255;SDS011;57229;51.432;-2.598;2023-08-08T02:51:03;6.68;;;3.20;;
56255;SDS011;57229;51.432;-2.598;2023-08-08T02:53:32;4.47;;;3.30;;
56255;SDS011;57229;51.432;-2.598;2023-08-08T02:55:57;6.97;;;3.63;;
56255;SDS011;57229;51.432;-2.598;2023-08-08T02:58:23;3.50;;;3.08;;
56255;SDS011;57229;51.432;-2.598;2023-08-08T03:00:49;3.80;;;3.40;;
56255;SDS011;57229;51.432;-2.598;2023-08-08T03:03:14;7.35;;;3.42;;
56255;SDS011;57229;51.432;-2.598;2023-08-08T03:05:40;4.72;;;3.40;;
56255;SDS011;57229;51.432;-2.598;2023-08-08T03:08:05;6.25;;;3.25;;
56255;SDS011;57229;51.432;-2.598;2023-08-08T03:10:31;5.53;;;3.53;;
56255;SDS011;57229;51.432;-2.598;2023-08-08T03:12:57;3.63;;;3.33;;
56255;SDS011;57229;51.432;-2.598;2023-08-08T03:15:23;4.45;;;3.28;;
56255;SDS011;57229;51.432;-2.598;2023-08-08T03:17:48;5.43;;;3.30;;
56255;SDS011;57229;51.432;-2.598;2023-08-08T03:20:14;4.50;;;3.85;;
56255;SDS011;57229;51.432;-2.598;2023-08-08T03:22:40;3.83;;;3.50;;
56255;SDS011;57229;51.432;-2.598;2023-08-08T03:25:05;3.65;;;3.40;;
56255;SDS011;57229;51.432;-2.598;2023-08-08T03:27:31;3.92;;;3.53;;
56255;SDS011;57229;51.432;-2.598;2023-08-08T03:29:57;4.97;;;3.75;;
56255;SDS011;57229;51.432;-2.598;2023-08-08T03:32:23;4.30;;;3.42;;
56255;SDS011;57229;51.432;-2.598;2023-08-08T03:34:48;4.03;;;3.63;;
56255;SDS011;57229;51.432;-2.598;2023-08-08T03:37:14;6.40;;;3.53;;
56255;SDS011;57229;51.432;-2.598;2023-08-08T03:39:40;6.03;;;3.50;;
56255;SDS011;57229;51.432;-2.598;2023-08-08T03:42:05;4.65;;;3.45;;
56255;SDS011;57229;51.432;-2.598;2023-08-08T03:44:31;5.18;;;3.35;;
56255;SDS011;57229;51.432;-2.598;2023-08-08T03:46:57;4.93;;;3.28;;
56255;SDS011;57229;51.432;-2.598;2023-08-08T03:49:23;4.43;;;3.47;;
56255;SDS011;57229;51.432;-2.598;2023-08-08T03:51:48;4.72;;;3.42;;
56255;SDS011;57229;51.432;-2.598;2023-08-08T03:54:14;4.00;;;3.60;;
56255;SDS011;57229;51.432;-2.598;2023-08-08T03:56:40;4.80;;;3.40;;
56255;SDS011;57229;51.432;-2.598;2023-08-08T03:59:06;3.67;;;3.33;;
56255;SDS011;57229;51.432;-2.598;2023-08-08T04:01:32;3.88;;;3.30;;
56255;SDS011;57229;51.432;-2.598;2023-08-08T04:03:58;4.25;;;3.47;;
56255;SDS011;57229;51.432;-2.598;2023-08-08T04:06:23;3.60;;;3.30;;
56255;SDS011;57229;51.432;-2.598;2023-08-08T04:08:49;5.50;;;3.40;;
56255;SDS011;57229;51.432;-2.598;2023-08-08T04:11:15;3.80;;;3.30;;
56255;SDS011;57229;51.432;-2.598;2023-08-08T04:13:41;3.70;;;3.40;;
56255;SDS011;57229;51.432;-2.598;2023-08-08T04:16:07;3.78;;;3.47;;
56255;SDS011;57229;51.432;-2.598;2023-08-08T04:18:33;4.40;;;3.55;;
56255;SDS011;57229;51.432;-2.598;2023-08-08T04:20:58;4.32;;;3.58;;
56255;SDS011;57229;51.432;-2.598;2023-08-08T04:23:24;3.85;;;3.50;;
56255;SDS011;57229;51.432;-2.598;2023-08-08T04:25:53;4.20;;;3.80;;
56255;SDS011;57229;51.432;-2.598;2023-08-08T04:28:19;4.25;;;3.72;;
56255;SDS011;57229;51.432;-2.598;2023-08-08T04:30:45;3.70;;;3.40;;
56255;SDS011;57229;51.432;-2.598;2023-08-08T04:33:10;3.92;;;3.63;;
56255;SDS011;57229;51.432;-2.598;2023-08-08T04:35:36;5.68;;;3.80;;
56255;SDS011;57229;51.432;-2.598;2023-08-08T04:38:02;5.43;;;3.72;;
56255;SDS011;57229;51.432;-2.598;2023-08-08T04:40:27;3.78;;;3.47;;
56255;SDS011;57229;51.432;-2.598;2023-08-08T04:42:53;4.63;;;3.58;;
56255;SDS011;57229;51.432;-2.598;2023-08-08T04:45:19;4.10;;;3.67;;
56255;SDS011;57229;51.432;-2.598;2023-08-08T04:47:46;6.95;;;3.88;;
56255;SDS011;57229;51.432;-2.598;2023-08-08T04:50:12;4.72;;;3.90;;
56255;SDS011;57229;51.432;-2.598;2023-08-08T04:52:37;3.97;;;3.55;;
56255;SDS011;57229;51.432;-2.598;2023-08-08T04:55:03;4.28;;;3.88;;
56255;SDS011;57229;51.432;-2.598;2023-08-08T04:57:29;5.22;;;3.90;;
56255;SDS011;57229;51.432;-2.598;2023-08-08T04:59:54;4.15;;;3.75;;
56255;SDS011;57229;51.432;-2.598;2023-08-08T05:02:20;4.22;;;3.92;;
56255;SDS011;57229;51.432;-2.598;2023-08-08T05:04:45;7.38;;;4.35;;
56255;SDS011;57229;51.432;-2.598;2023-08-08T05:07:11;5.82;;;4.15;;
56255;SDS011;57229;51.432;-2.598;2023-08-08T05:09:37;7.30;;;4.40;;
56255;SDS011;57229;51.432;-2.598;2023-08-08T05:12:03;6.20;;;4.63;;
56255;SDS011;57229;51.432;-2.598;2023-08-08T05:14:29;7.85;;;3.97;;
56255;SDS011;57229;51.432;-2.598;2023-08-08T05:16:54;4.50;;;4.10;;
56255;SDS011;57229;51.432;-2.598;2023-08-08T05:19:20;7.72;;;4.50;;
56255;SDS011;57229;51.432;-2.598;2023-08-08T05:21:46;6.80;;;4.18;;
56255;SDS011;57229;51.432;-2.598;2023-08-08T05:24:11;6.47;;;4.30;;
56255;SDS011;57229;51.432;-2.598;2023-08-08T05:26:37;5.05;;;4.20;;
56255;SDS011;57229;51.432;-2.598;2023-08-08T05:29:02;4.75;;;3.92;;
56255;SDS011;57229;51.432;-2.598;2023-08-08T05:31:28;5.30;;;3.92;;
56255;SDS011;57229;51.432;-2.598;2023-08-08T05:33:54;6.30;;;4.22;;
56255;SDS011;57229;51.432;-2.598;2023-08-08T05:36:19;9.68;;;4.20;;
56255;SDS011;57229;51.432;-2.598;2023-08-08T05:38:45;6.57;;;4.43;;
56255;SDS011;57229;51.432;-2.598;2023-08-08T05:41:10;4.57;;;4.18;;
56255;SDS011;57229;51.432;-2.598;2023-08-08T05:43:36;7.55;;;4.60;;
56255;SDS011;57229;51.432;-2.598;2023-08-08T05:46:02;8.27;;;4.40;;
56255;SDS011;57229;51.432;-2.598;2023-08-08T05:48:27;4.40;;;4.00;;
56255;SDS011;57229;51.432;-2.598;2023-08-08T05:50:53;5.70;;;4.15;;
56255;SDS011;57229;51.432;-2.598;2023-08-08T05:53:19;6.47;;;4.07;;
56255;SDS011;57229;51.432;-2.598;2023-08-08T05:55:45;8.20;;;4.32;;
56255;SDS011;57229;51.432;-2.598;2023-08-08T05:58:13;6.30;;;4.10;;
56255;SDS011;57229;51.432;-2.598;2023-08-08T06:00:40;5.72;;;4.00;;
56255;SDS011;57229;51.432;-2.598;2023-08-08T06:03:05;4.35;;;3.90;;
56255;SDS011;57229;51.432;-2.598;2023-08-08T06:05:31;5.95;;;4.40;;
56255;SDS011;57229;51.432;-2.598;2023-08-08T06:07:57;6.13;;;4.35;;
56255;SDS011;57229;51.432;-2.598;2023-08-08T06:10:23;5.18;;;4.28;;
56255;SDS011;57229;51.432;-2.598;2023-08-08T06:12:50;4.53;;;4.00;;
56255;SDS011;57229;51.432;-2.598;2023-08-08T06:15:16;4.25;;;3.92;;
56255;SDS011;57229;51.432;-2.598;2023-08-08T06:17:41;4.80;;;4.30;;
56255;SDS011;57229;51.432;-2.598;2023-08-08T06:20:10;6.53;;;4.30;;
56255;SDS011;57229;51.432;-2.598;2023-08-08T06:22:36;5.85;;;4.65;;
56255;SDS011;57229;51.432;-2.598;2023-08-08T06:25:02;4.78;;;4.18;;
56255;SDS011;57229;51.432;-2.598;2023-08-08T06:27:28;5.10;;;4.13;;
56255;SDS011;57229;51.432;-2.598;2023-08-08T06:29:54;4.55;;;4.10;;
56255;SDS011;57229;51.432;-2.598;2023-08-08T06:32:20;6.25;;;4.70;;
56255;SDS011;57229;51.432;-2.598;2023-08-08T06:34:46;4.60;;;4.20;;
56255;SDS011;57229;51.432;-2.598;2023-08-08T06:37:12;7.45;;;4.53;;
56255;SDS011;57229;51.432;-2.598;2023-08-08T06:39:38;4.63;;;4.22;;
56255;SDS011;57229;51.432;-2.598;2023-08-08T06:42:05;5.03;;;3.90;;
56255;SDS011;57229;51.432;-2.598;2023-08-08T06:44:32;5.35;;;4.05;;
56255;SDS011;57229;51.432;-2.598;2023-08-08T06:46:58;5.53;;;4.05;;
56255;SDS011;57229;51.432;-2.598;2023-08-08T06:49:23;4.63;;;4.20;;
56255;SDS011;57229;51.432;-2.598;2023-08-08T06:51:49;4.35;;;3.95;;
56255;SDS011;57229;51.432;-2.598;2023-08-08T06:54:15;4.45;;;3.95;;
56255;SDS011;57229;51.432;-2.598;2023-08-08T06:56:41;9.57;;;4.30;;
56255;SDS011;57229;51.432;-2.598;2023-08-08T06:59:06;4.55;;;4.20;;
56255;SDS011;57229;51.432;-2.598;2023-08-08T07:01:32;5.90;;;4.07;;
56255;SDS011;57229;51.432;-2.598;2023-08-08T07:03:58;4.95;;;4.30;;
56255;SDS011;57229;51.432;-2.598;2023-08-08T07:06:24;4.70;;;4.00;;
56255;SDS011;57229;51.432;-2.598;2023-08-08T07:08:50;4.30;;;3.95;;
56255;SDS011;57229;51.432;-2.598;2023-08-08T07:11:16;8.20;;;4.70;;
56255;SDS011;57229;51.432;-2.598;2023-08-08T07:13:41;4.50;;;4.10;;
56255;SDS011;57229;51.432;-2.598;2023-08-08T07:16:07;4.00;;;3.70;;
56255;SDS011;57229;51.432;-2.598;2023-08-08T07:18:32;4.63;;;4.22;;
56255;SDS011;57229;51.432;-2.598;2023-08-08T07:20:58;5.82;;;3.78;;
56255;SDS011;57229;51.432;-2.598;2023-08-08T07:23:24;4.97;;;4.13;;
56255;SDS011;57229;51.432;-2.598;2023-08-08T07:25:49;5.15;;;3.83;;
56255;SDS011;57229;51.432;-2.598;2023-08-08T07:28:15;5.38;;;4.20;;
56255;SDS011;57229;51.432;-2.598;2023-08-08T07:30:41;6.78;;;3.95;;
56255;SDS011;57229;51.432;-2.598;2023-08-08T07:33:07;4.55;;;4.13;;
56255;SDS011;57229;51.432;-2.598;2023-08-08T07:35:35;4.50;;;4.10;;
56255;SDS011;57229;51.432;-2.598;2023-08-08T07:38:01;5.75;;;4.10;;
56255;SDS011;57229;51.432;-2.598;2023-08-08T07:40:26;4.25;;;3.92;;
56255;SDS011;57229;51.432;-2.598;2023-08-08T07:42:52;4.78;;;3.70;;
56255;SDS011;57229;51.432;-2.598;2023-08-08T07:45:18;4.25;;;3.85;;
56255;SDS011;57229;51.432;-2.598;2023-08-08T07:47:44;4.05;;;3.67;;
56255;SDS011;57229;51.432;-2.598;2023-08-08T07:50:10;4.05;;;3.67;;
56255;SDS011;57229;51.432;-2.598;2023-08-08T07:52:37;4.72;;;4.32;;
56255;SDS011;57229;51.432;-2.598;2023-08-08T07:55:03;4.75;;;4.00;;
56255;SDS011;57229;51.432;-2.598;2023-08-08T07:57:30;4.30;;;3.90;;
56255;SDS011;57229;51.432;-2.598;2023-08-08T07:59:56;4.85;;;4.30;;
56255;SDS011;57229;51.432;-2.598;2023-08-08T08:02:22;4.50;;;4.10;;
56255;SDS011;57229;51.432;-2.598;2023-08-08T08:04:48;4.70;;;4.10;;
56255;SDS011;57229;51.432;-2.598;2023-08-08T08:07:13;4.38;;;3.95;;
56255;SDS011;57229;51.432;-2.598;2023-08-08T08:09:39;6.55;;;3.70;;
56255;SDS011;57229;51.432;-2.598;2023-08-08T08:12:07;4.95;;;3.90;;
56255;SDS011;57229;51.432;-2.598;2023-08-08T08:14:33;4.03;;;3.70;;
56255;SDS011;57229;51.432;-2.598;2023-08-08T08:16:59;6.40;;;4.10;;
56255;SDS011;57229;51.432;-2.598;2023-08-08T08:19:24;4.32;;;3.92;;
56255;SDS011;57229;51.432;-2.598;2023-08-08T08:21:50;4.32;;;3.45;;
56255;SDS011;57229;51.432;-2.598;2023-08-08T08:24:15;4.22;;;3.83;;
56255;SDS011;57229;51.432;-2.598;2023-08-08T08:26:41;3.90;;;3.60;;
56255;SDS011;57229;51.432;-2.598;2023-08-08T08:29:07;3.80;;;3.40;;
56255;SDS011;57229;51.432;-2.598;2023-08-08T08:31:32;3.60;;;3.30;;
56255;SDS011;57229;51.432;-2.598;2023-08-08T08:33:58;3.45;;;3.25;;
56255;SDS011;57229;51.432;-2.598;2023-08-08T08:36:24;6.95;;;3.47;;
56255;SDS011;57229;51.432;-2.598;2023-08-08T08:38:51;3.70;;;3.40;;
56255;SDS011;57229;51.432;-2.598;2023-08-08T08:41:17;3.40;;;3.10;;
56255;SDS011;57229;51.432;-2.598;2023-08-08T08:43:45;3.50;;;3.30;;
56255;SDS011;57229;51.432;-2.598;2023-08-08T08:46:11;3.40;;;3.20;;
56255;SDS011;57229;51.432;-2.598;2023-08-08T08:48:39;6.07;;;3.60;;
56255;SDS011;57229;51.432;-2.598;2023-08-08T08:51:06;3.75;;;3.47;;
56255;SDS011;57229;51.432;-2.598;2023-08-08T08:53:31;3.70;;;3.20;;
56255;SDS011;57229;51.432;-2.598;2023-08-08T08:55:59;3.50;;;3.22;;
56255;SDS011;57229;51.432;-2.598;2023-08-08T08:58:26;3.40;;;3.10;;
56255;SDS011;57229;51.432;-2.598;2023-08-08T09:00:53;3.90;;;3.50;;
56255;SDS011;57229;51.432;-2.598;2023-08-08T09:03:20;4.10;;;3.40;;
56255;SDS011;57229;51.432;-2.598;2023-08-08T09:05:45;3.80;;;3.50;;
56255;SDS011;57229;51.432;-2.598;2023-08-08T09:08:13;4.18;;;3.63;;
56255;SDS011;57229;51.432;-2.598;2023-08-08T09:10:40;5.15;;;3.97;;
56255;SDS011;57229;51.432;-2.598;2023-08-08T09:13:06;3.70;;;3.40;;
56255;SDS011;57229;51.432;-2.598;2023-08-08T09:15:32;7.95;;;3.97;;
56255;SDS011;57229;51.432;-2.598;2023-08-08T09:17:58;5.60;;;3.90;;
56255;SDS011;57229;51.432;-2.598;2023-08-08T09:20:24;5.55;;;3.80;;
56255;SDS011;57229;51.432;-2.598;2023-08-08T09:22:52;4.45;;;4.03;;
56255;SDS011;57229;51.432;-2.598;2023-08-08T09:25:18;6.05;;;4.13;;
56255;SDS011;57229;51.432;-2.598;2023-08-08T09:27:44;4.68;;;4.22;;
56255;SDS011;57229;51.432;-2.598;2023-08-08T09:30:10;4.78;;;4.20;;
56255;SDS011;57229;51.432;-2.598;2023-08-08T09:32:39;4.80;;;4.30;;
56255;SDS011;57229;51.432;-2.598;2023-08-08T09:35:05;4.80;;;4.25;;
56255;SDS011;57229;51.432;-2.598;2023-08-08T09:37:34;6.20;;;4.47;;
56255;SDS011;57229;51.432;-2.598;2023-08-08T09:40:01;5.22;;;4.35;;
56255;SDS011;57229;51.432;-2.598;2023-08-08T09:42:30;5.35;;;4.10;;
56255;SDS011;57229;51.432;-2.598;2023-08-08T09:44:56;5.38;;;3.85;;
56255;SDS011;57229;51.432;-2.598;2023-08-08T09:47:22;4.57;;;3.90;;
56255;SDS011;57229;51.432;-2.598;2023-08-08T09:49:48;4.60;;;4.22;;
56255;SDS011;57229;51.432;-2.598;2023-08-08T09:52:14;6.50;;;4.05;;
56255;SDS011;57229;51.432;-2.598;2023-08-08T09:54:41;4.38;;;3.97;;
56255;SDS011;57229;51.432;-2.598;2023-08-08T09:57:07;4.20;;;3.80;;
56255;SDS011;57229;51.432;-2.598;2023-08-08T09:59:33;4.22;;;3.90;;
56255;SDS011;57229;51.432;-2.598;2023-08-08T10:02:02;5.93;;;3.75;;
56255;SDS011;57229;51.432;-2.598;2023-08-08T10:04:30;4.20;;;3.80;;
56255;SDS011;57229;51.432;-2.598;2023-08-08T10:06:56;4.38;;;3.95;;
56255;SDS011;57229;51.432;-2.598;2023-08-08T10:09:22;4.20;;;3.72;;
56255;SDS011;57229;51.432;-2.598;2023-08-08T10:11:48;5.55;;;4.10;;
56255;SDS011;57229;51.432;-2.598;2023-08-08T10:14:14;5.00;;;4.60;;
56255;SDS011;57229;51.432;-2.598;2023-08-08T10:16:41;9.57;;;4.85;;
56255;SDS011;57229;51.432;-2.598;2023-08-08T10:19:09;5.15;;;4.75;;
56255;SDS011;57229;51.432;-2.598;2023-08-08T10:21:35;6.45;;;4.82;;
56255;SDS011;57229;51.432;-2.598;2023-08-08T10:24:06;6.82;;;4.60;;
56255;SDS011;57229;51.432;-2.598;2023-08-08T10:29:37;5.22;;;4.43;;
56255;SDS011;57229;51.432;-2.598;2023-08-08T10:32:04;6.00;;;4.45;;
56255;SDS011;57229;51.432;-2.598;2023-08-08T10:34:41;4.57;;;4.18;;
56255;SDS011;57229;51.432;-2.598;2023-08-08T10:37:09;4.68;;;4.28;;
56255;SDS011;57229;51.432;-2.598;2023-08-08T10:39:37;5.75;;;4.25;;
56255;SDS011;57229;51.432;-2.598;2023-08-08T10:42:03;5.53;;;4.60;;
56255;SDS011;57229;51.432;-2.598;2023-08-08T10:44:30;4.47;;;4.07;;
56255;SDS011;57229;51.432;-2.598;2023-08-08T10:46:56;4.55;;;4.10;;
56255;SDS011;57229;51.432;-2.598;2023-08-08T10:49:22;5.03;;;4.13;;
56255;SDS011;57229;51.432;-2.598;2023-08-08T10:51:48;4.28;;;3.97;;
56255;SDS011;57229;51.432;-2.598;2023-08-08T10:54:16;4.25;;;3.85;;
56255;SDS011;57229;51.432;-2.598;2023-08-08T10:56:54;4.00;;;3.70;;
56255;SDS011;57229;51.432;-2.598;2023-08-08T10:59:27;4.63;;;4.25;;
56255;SDS011;57229;51.432;-2.598;2023-08-08T11:02:01;4.63;;;4.10;;
56255;SDS011;57229;51.432;-2.598;2023-08-08T11:04:28;5.82;;;4.38;;
56255;SDS011;57229;51.432;-2.598;2023-08-08T11:06:55;7.93;;;4.43;;
56255;SDS011;57229;51.432;-2.598;2023-08-08T11:09:21;4.28;;;3.97;;
56255;SDS011;57229;51.432;-2.598;2023-08-08T11:11:48;5.93;;;4.68;;
56255;SDS011;57229;51.432;-2.598;2023-08-08T11:14:17;4.93;;;4.32;;
56255;SDS011;57229;51.432;-2.598;2023-08-08T11:16:45;7.20;;;4.50;;
56255;SDS011;57229;51.432;-2.598;2023-08-08T11:19:13;4.90;;;4.07;;
56255;SDS011;57229;51.432;-2.598;2023-08-08T11:21:42;4.55;;;4.15;;
56255;SDS011;57229;51.432;-2.598;2023-08-08T11:24:09;4.50;;;4.10;;
56255;SDS011;57229;51.432;-2.598;2023-08-08T11:26:36;4.65;;;4.25;;
56255;SDS011;57229;51.432;-2.598;2023-08-08T11:29:03;4.13;;;3.83;;
56255;SDS011;57229;51.432;-2.598;2023-08-08T11:31:30;5.18;;;3.92;;
56255;SDS011;57229;51.432;-2.598;2023-08-08T11:33:58;4.10;;;3.78;;
56255;SDS011;57229;51.432;-2.598;2023-08-08T11:36:24;4.75;;;4.35;;
56255;SDS011;57229;51.432;-2.598;2023-08-08T11:38:54;4.07;;;3.80;;
56255;SDS011;57229;51.432;-2.598;2023-08-08T11:41:22;5.00;;;4.22;;
56255;SDS011;57229;51.432;-2.598;2023-08-08T11:43:49;5.75;;;4.10;;
56255;SDS011;57229;51.432;-2.598;2023-08-08T11:46:15;4.30;;;3.90;;
56255;SDS011;57229;51.432;-2.598;2023-08-08T11:48:42;4.50;;;4.10;;
56255;SDS011;57229;51.432;-2.598;2023-08-08T11:51:08;4.60;;;4.18;;
56255;SDS011;57229;51.432;-2.598;2023-08-08T11:53:35;4.47;;;4.13;;
56255;SDS011;57229;51.432;-2.598;2023-08-08T11:56:01;7.40;;;3.67;;
56255;SDS011;57229;51.432;-2.598;2023-08-08T11:58:29;3.72;;;3.40;;
56255;SDS011;57229;51.432;-2.598;2023-08-08T12:00:56;3.60;;;3.40;;
56255;SDS011;57229;51.432;-2.598;2023-08-08T12:03:22;3.85;;;3.65;;
56255;SDS011;57229;51.432;-2.598;2023-08-08T12:05:48;3.20;;;3.00;;
56255;SDS011;57229;51.432;-2.598;2023-08-08T12:08:17;3.00;;;2.80;;
56255;SDS011;57229;51.432;-2.598;2023-08-08T12:10:48;3.00;;;2.80;;
56255;SDS011;57229;51.432;-2.598;2023-08-08T12:13:19;3.03;;;2.83;;
56255;SDS011;57229;51.432;-2.598;2023-08-08T12:15:45;3.03;;;2.83;;
56255;SDS011;57229;51.432;-2.598;2023-08-08T12:18:11;3.10;;;2.90;;
56255;SDS011;57229;51.432;-2.598;2023-08-08T12:20:40;3.40;;;3.20;;
56255;SDS011;57229;51.432;-2.598;2023-08-08T12:23:06;3.78;;;3.47;;
56255;SDS011;57229;51.432;-2.598;2023-08-08T12:25:31;3.65;;;3.35;;
56255;SDS011;57229;51.432;-2.598;2023-08-08T12:27:58;3.28;;;3.00;;
56255;SDS011;57229;51.432;-2.598;2023-08-08T12:30:23;3.33;;;3.13;;
56255;SDS011;57229;51.432;-2.598;2023-08-08T12:32:49;3.88;;;3.33;;
56255;SDS011;57229;51.432;-2.598;2023-08-08T12:35:14;3.75;;;3.40;;
56255;SDS011;57229;51.432;-2.598;2023-08-08T12:37:41;3.67;;;3.45;;
56255;SDS011;57229;51.432;-2.598;2023-08-08T12:40:07;3.33;;;3.13;;
56255;SDS011;57229;51.432;-2.598;2023-08-08T12:42:33;3.80;;;3.20;;
56255;SDS011;57229;51.432;-2.598;2023-08-08T12:44:59;4.70;;;3.53;;
56255;SDS011;57229;51.432;-2.598;2023-08-08T12:47:25;3.65;;;3.45;;
56255;SDS011;57229;51.432;-2.598;2023-08-08T12:49:54;3.60;;;3.40;;
56255;SDS011;57229;51.432;-2.598;2023-08-08T12:52:20;3.53;;;3.33;;
56255;SDS011;57229;51.432;-2.598;2023-08-08T12:54:45;3.75;;;3.55;;
56255;SDS011;57229;51.432;-2.598;2023-08-08T12:57:11;3.83;;;3.60;;
56255;SDS011;57229;51.432;-2.598;2023-08-08T12:59:36;4.28;;;3.97;;
56255;SDS011;57229;51.432;-2.598;2023-08-08T13:02:02;3.80;;;3.60;;
56255;SDS011;57229;51.432;-2.598;2023-08-08T13:04:28;3.50;;;3.20;;
56255;SDS011;57229;51.432;-2.598;2023-08-08T13:06:53;3.63;;;3.42;;
56255;SDS011;57229;51.432;-2.598;2023-08-08T13:09:19;3.72;;;3.53;;
56255;SDS011;57229;51.432;-2.598;2023-08-08T13:11:45;3.70;;;3.40;;
56255;SDS011;57229;51.432;-2.598;2023-08-08T13:14:10;4.03;;;3.65;;
56255;SDS011;57229;51.432;-2.598;2023-08-08T13:16:36;3.58;;;3.38;;
56255;SDS011;57229;51.432;-2.598;2023-08-08T13:19:02;4.30;;;4.00;;
56255;SDS011;57229;51.432;-2.598;2023-08-08T13:21:28;5.55;;;3.42;;
56255;SDS011;57229;51.432;-2.598;2023-08-08T13:23:54;3.45;;;3.25;;
56255;SDS011;57229;51.432;-2.598;2023-08-08T13:26:19;3.20;;;3.00;;
56255;SDS011;57229;51.432;-2.598;2023-08-08T13:28:45;3.17;;;2.97;;
56255;SDS011;57229;51.432;-2.598;2023-08-08T13:31:11;3.20;;;3.00;;
56255;SDS011;57229;51.432;-2.598;2023-08-08T13:33:36;3.17;;;3.00;;
56255;SDS011;57229;51.432;-2.598;2023-08-08T13:36:02;3.15;;;2.95;;
56255;SDS011;57229;51.432;-2.598;2023-08-08T13:38:28;3.10;;;2.90;;
56255;SDS011;57229;51.432;-2.598;2023-08-08T13:40:53;3.10;;;3.00;;
56255;SDS011;57229;51.432;-2.598;2023-08-08T13:43:20;3.47;;;3.22;;
56255;SDS011;57229;51.432;-2.598;2023-08-08T13:45:45;3.40;;;3.20;;
56255;SDS011;57229;51.432;-2.598;2023-08-08T13:48:11;3.63;;;3.33;;
56255;SDS011;57229;51.432;-2.598;2023-08-08T13:50:36;3.88;;;3.55;;
56255;SDS011;57229;51.432;-2.598;2023-08-08T13:53:02;3.70;;;3.50;;
56255;SDS011;57229;51.432;-2.598;2023-08-08T13:55:28;4.00;;;3.80;;
56255;SDS011;57229;51.432;-2.598;2023-08-08T13:57:54;3.90;;;3.70;;
56255;SDS011;57229;51.432;-2.598;2023-08-08T14:00:20;4.13;;;3.75;;
56255;SDS011;57229;51.432;-2.598;2023-08-08T14:02:46;5.00;;;3.60;;
56255;SDS011;57229;51.432;-2.598;2023-08-08T14:05:12;3.80;;;3.50;;
56255;SDS011;57229;51.432;-2.598;2023-08-08T14:07:38;3.88;;;3.53;;
56255;SDS011;57229;51.432;-2.598;2023-08-08T14:10:04;4.63;;;3.80;;
56255;SDS011;57229;51.432;-2.598;2023-08-08T14:12:30;3.90;;;3.60;;
56255;SDS011;57229;51.432;-2.598;2023-08-08T14:14:55;3.72;;;3.40;;
56255;SDS011;57229;51.432;-2.598;2023-08-08T14:17:21;5.00;;;4.28;;
56255;SDS011;57229;51.432;-2.598;2023-08-08T14:19:47;5.78;;;4.13;;
56255;SDS011;57229;51.432;-2.598;2023-08-08T14:22:13;3.80;;;3.50;;
56255;SDS011;57229;51.432;-2.598;2023-08-08T14:24:39;3.47;;;3.20;;
56255;SDS011;57229;51.432;-2.598;2023-08-08T14:27:05;5.68;;;3.55;;
56255;SDS011;57229;51.432;-2.598;2023-08-08T14:29:30;3.65;;;3.45;;
56255;SDS011;57229;51.432;-2.598;2023-08-08T14:31:56;6.50;;;3.92;;
56255;SDS011;57229;51.432;-2.598;2023-08-08T14:34:31;5.38;;;4.18;;
56255;SDS011;57229;51.432;-2.598;2023-08-08T14:36:58;3.90;;;3.50;;